Time;durP1;ratioP1;P1;durP2;ratioP2;P2;SDS_P1;SDS_P2;PMS_P1;PMS_P2;Temp;Humidity;BMP_temperature;BMP_pressure;BME280_temperature;BME280_humidity;BME280_pressure;Samples;Min_cycle;Max_cycle;Signal;HPM_P1;HPM_P2
2021/05/30 00:02:08;;;;;;;24.45;13.13;;;;;;;;;;5055947;28;20465;-54
2021/05/30 00:04:34;;;;;;;38.67;22.58;;;;;;;;;;5055766;28;20457;-53
2021/05/30 00:07:00;;;;;;;33.90;20.27;;;;;;;;;;5056028;28;20369;-54
2021/05/30 00:09:26;;;;;;;23.27;12.50;;;;;;;;;;5055733;28;20465;-53
2021/05/30 00:11:52;;;;;;;48.45;30.90;;;;;;;;;;5055807;28;20029;-53
2021/05/30 00:14:19;;;;;;;51.47;31.73;;;;;;;;;;5055444;28;20052;-53
2021/05/30 00:16:45;;;;;;;28.17;18.08;;;;;;;;;;5055696;28;20033;-52
2021/05/30 00:19:11;;;;;;;15.73;10.13;;;;;;;;;;5055652;28;20032;-61
2021/05/30 00:21:38;;;;;;;45.08;27.88;;;;;;;;;;5055525;28;20029;-63
2021/05/30 00:24:04;;;;;;;44.20;27.70;;;;;;;;;;5055563;28;20466;-53
2021/05/30 00:26:31;;;;;;;33.20;21.02;;;;;;;;;;5055483;28;20036;-51
2021/05/30 00:28:57;;;;;;;48.22;30.70;;;;;;;;;;5054401;28;20488;-53
2021/05/30 00:31:23;;;;;;;48.45;27.88;;;;;;;;;;5055321;28;20028;-49
2021/05/30 00:33:49;;;;;;;16.75;11.07;;;;;;;;;;5053792;28;20512;-47
2021/05/30 00:36:15;;;;;;;15.48;9.25;;;;;;;;;;5055286;28;20063;-51
2021/05/30 00:38:41;;;;;;;10.23;6.95;;;;;;;;;;5055189;28;20104;-51
2021/05/30 00:41:08;;;;;;;5.72;3.88;;;;;;;;;;5055246;28;20071;-51
2021/05/30 00:43:46;;;;;;;5.32;3.78;;;;;;;;;;5055008;28;20013;-51
2021/05/30 00:46:12;;;;;;;4.88;2.95;;;;;;;;;;5055113;28;20017;-51
2021/05/30 00:48:39;;;;;;;16.88;8.23;;;;;;;;;;5055325;28;20035;-51
2021/05/30 00:51:05;;;;;;;10.40;5.45;;;;;;;;;;5054898;28;20094;-53
2021/05/30 00:53:32;;;;;;;28.38;15.05;;;;;;;;;;5055024;28;20495;-53
2021/05/30 00:55:58;;;;;;;31.55;16.67;;;;;;;;;;5055052;28;20384;-50
2021/05/30 00:58:24;;;;;;;22.95;10.50;;;;;;;;;;5054865;28;20044;-51
2021/05/30 01:00:51;;;;;;;15.05;8.65;;;;;;;;;;5054766;28;20032;-51
2021/05/30 01:03:17;;;;;;;14.50;9.70;;;;;;;;;;5054939;28;20028;-51
2021/05/30 01:05:43;;;;;;;17.73;8.60;;;;;;;;;;5054814;28;20461;-52
2021/05/30 01:08:10;;;;;;;82.70;48.65;;;;;;;;;;5054652;28;20040;-49
2021/05/30 01:10:37;;;;;;;21.75;10.90;;;;;;;;;;5054751;28;20048;-50
2021/05/30 01:13:04;;;;;;;19.48;9.65;;;;;;;;;;5054669;28;20076;-50
2021/05/30 01:15:32;;;;;;;38.17;21.90;;;;;;;;;;5054323;28;20056;-51
2021/05/30 01:17:58;;;;;;;27.63;15.88;;;;;;;;;;5054507;28;20406;-50
2021/05/30 01:20:25;;;;;;;60.10;36.00;;;;;;;;;;5054436;28;20024;-51
2021/05/30 01:22:52;;;;;;;35.78;19.67;;;;;;;;;;5054502;28;20448;-50
2021/05/30 01:25:20;;;;;;;28.02;17.35;;;;;;;;;;5053142;28;20027;-50
2021/05/30 01:27:47;;;;;;;61.75;35.13;;;;;;;;;;5054519;28;20029;-51
2021/05/30 01:30:14;;;;;;;53.28;32.22;;;;;;;;;;5054621;28;20032;-52
2021/05/30 01:32:40;;;;;;;23.92;14.40;;;;;;;;;;5054270;28;20029;-49
2021/05/30 01:35:07;;;;;;;60.78;31.23;;;;;;;;;;5052907;28;20025;-50
2021/05/30 01:37:33;;;;;;;33.42;21.55;;;;;;;;;;5054063;28;20591;-50
2021/05/30 01:39:59;;;;;;;59.28;34.28;;;;;;;;;;5053835;28;20100;-50
2021/05/30 01:42:25;;;;;;;29.65;18.25;;;;;;;;;;5053810;28;20036;-52
2021/05/30 01:44:51;;;;;;;26.27;17.55;;;;;;;;;;5054299;28;20025;-52
2021/05/30 01:47:18;;;;;;;28.95;18.20;;;;;;;;;;5053828;28;20056;-51
2021/05/30 01:49:44;;;;;;;13.18;8.57;;;;;;;;;;5054059;28;20480;-52
2021/05/30 01:52:10;;;;;;;15.40;10.40;;;;;;;;;;5053717;28;20053;-52
2021/05/30 01:54:41;;;;;;;8.50;5.97;;;;;;;;;;5053891;28;20051;-52
2021/05/30 01:57:09;;;;;;;2.95;2.30;;;;;;;;;;5053609;28;20358;-52
2021/05/30 01:59:38;;;;;;;15.23;7.90;;;;;;;;;;5053662;28;20104;-52
2021/05/30 02:02:06;;;;;;;10.85;5.53;;;;;;;;;;5053696;28;20025;-51
2021/05/30 02:04:43;;;;;;;9.85;4.93;;;;;;;;;;5053687;28;20021;-51
2021/05/30 02:07:10;;;;;;;6.47;4.18;;;;;;;;;;5053664;28;20041;-55
2021/05/30 02:09:37;;;;;;;5.28;3.90;;;;;;;;;;5053591;28;20440;-52
2021/05/30 02:12:04;;;;;;;13.15;3.33;;;;;;;;;;5053625;28;20028;-52
2021/05/30 02:14:30;;;;;;;7.32;2.88;;;;;;;;;;5053785;28;20028;-52
2021/05/30 02:16:56;;;;;;;4.85;2.90;;;;;;;;;;5053364;28;20072;-52
2021/05/30 02:19:22;;;;;;;3.25;2.13;;;;;;;;;;5053609;28;20029;-52
2021/05/30 02:21:53;;;;;;;2.28;1.75;;;;;;;;;;5053328;28;20499;-52
2021/05/30 02:24:19;;;;;;;3.75;1.95;;;;;;;;;;5053439;28;20582;-52
2021/05/30 02:26:46;;;;;;;4.28;1.70;;;;;;;;;;5053358;28;20078;-52
2021/05/30 02:29:18;;;;;;;2.38;1.73;;;;;;;;;;5053306;28;20025;-51
2021/05/30 02:31:44;;;;;;;2.33;1.77;;;;;;;;;;5053269;28;20025;-51
2021/05/30 02:34:10;;;;;;;3.72;2.38;;;;;;;;;;5053277;28;20052;-50
2021/05/30 02:36:36;;;;;;;5.32;2.05;;;;;;;;;;5053529;28;20033;-51
2021/05/30 02:39:02;;;;;;;6.38;1.95;;;;;;;;;;5053318;28;20036;-51
2021/05/30 02:41:28;;;;;;;2.30;1.90;;;;;;;;;;5053168;28;20075;-53
2021/05/30 02:43:54;;;;;;;2.63;1.73;;;;;;;;;;5053369;28;20057;-53
2021/05/30 02:46:21;;;;;;;3.25;1.73;;;;;;;;;;5053132;28;20025;-51
2021/05/30 02:48:47;;;;;;;2.67;1.85;;;;;;;;;;5053343;28;20031;-52
2021/05/30 02:51:13;;;;;;;2.80;1.70;;;;;;;;;;5053628;28;20041;-52
2021/05/30 02:53:39;;;;;;;1.55;1.33;;;;;;;;;;5057263;28;20548;-52
2021/05/30 02:56:05;;;;;;;2.33;1.52;;;;;;;;;;5057222;28;20132;-54
2021/05/30 02:58:31;;;;;;;2.58;1.60;;;;;;;;;;5057440;28;20063;-55
2021/05/30 03:00:58;;;;;;;2.22;1.27;;;;;;;;;;5057175;28;20025;-54
2021/05/30 03:03:24;;;;;;;2.58;1.30;;;;;;;;;;5057254;28;20024;-51
2021/05/30 03:05:50;;;;;;;4.78;1.60;;;;;;;;;;5057165;28;20052;-53
2021/05/30 03:08:16;;;;;;;1.88;1.20;;;;;;;;;;5057183;28;20528;-53
2021/05/30 03:10:42;;;;;;;4.05;1.63;;;;;;;;;;5056900;28;20028;-53
2021/05/30 03:13:09;;;;;;;1.70;1.33;;;;;;;;;;5057087;28;20021;-53
2021/05/30 03:15:38;;;;;;;6.28;1.45;;;;;;;;;;5056773;28;20154;-53
2021/05/30 03:18:05;;;;;;;2.85;1.50;;;;;;;;;;5056954;28;20366;-53
2021/05/30 03:20:31;;;;;;;2.45;1.35;;;;;;;;;;5057101;28;20032;-53
2021/05/30 03:22:57;;;;;;;1.50;1.30;;;;;;;;;;5057060;28;20417;-52
2021/05/30 03:25:23;;;;;;;1.63;1.27;;;;;;;;;;5056655;28;20100;-52
2021/05/30 03:27:49;;;;;;;2.78;1.50;;;;;;;;;;5056859;28;20025;-53
2021/05/30 03:30:16;;;;;;;3.15;1.35;;;;;;;;;;5056565;28;20017;-53
2021/05/30 03:32:45;;;;;;;1.70;1.58;;;;;;;;;;5056730;28;20056;-53
2021/05/30 03:35:11;;;;;;;3.80;1.30;;;;;;;;;;5056744;28;20489;-52
2021/05/30 03:37:37;;;;;;;2.15;1.23;;;;;;;;;;5057045;28;20540;-52
2021/05/30 03:40:11;;;;;;;2.70;1.63;;;;;;;;;;5056297;28;20035;-53
2021/05/30 03:42:37;;;;;;;1.75;1.17;;;;;;;;;;5056425;28;20534;-53
2021/05/30 03:45:04;;;;;;;2.30;1.33;;;;;;;;;;5056389;28;20025;-52
2021/05/30 03:47:30;;;;;;;2.50;1.40;;;;;;;;;;5056489;28;20020;-52
2021/05/30 03:49:56;;;;;;;3.38;1.33;;;;;;;;;;5056184;28;20075;-53
2021/05/30 03:52:22;;;;;;;1.63;1.38;;;;;;;;;;5056128;28;20081;-52
2021/05/30 03:54:48;;;;;;;1.70;1.33;;;;;;;;;;5056072;28;20018;-52
2021/05/30 03:57:15;;;;;;;2.33;1.40;;;;;;;;;;5056127;28;20079;-52
2021/05/30 03:59:41;;;;;;;2.70;1.40;;;;;;;;;;5056300;28;20148;-52
2021/05/30 04:02:07;;;;;;;4.55;1.40;;;;;;;;;;5055965;28;20033;-54
2021/05/30 04:04:33;;;;;;;2.58;1.40;;;;;;;;;;5054981;28;20115;-53
2021/05/30 04:06:59;;;;;;;3.47;1.50;;;;;;;;;;5055807;28;20033;-52
2021/05/30 04:09:25;;;;;;;3.28;1.50;;;;;;;;;;5056096;28;20091;-52
2021/05/30 04:11:56;;;;;;;5.18;1.75;;;;;;;;;;5056036;28;20021;-52
2021/05/30 04:14:22;;;;;;;3.45;1.45;;;;;;;;;;5055863;28;20138;-52
2021/05/30 04:16:48;;;;;;;4.63;1.23;;;;;;;;;;5055764;28;20028;-53
2021/05/30 04:19:14;;;;;;;1.50;1.30;;;;;;;;;;5055845;28;20025;-52
2021/05/30 04:21:40;;;;;;;3.13;1.42;;;;;;;;;;5055979;28;20033;-52
2021/05/30 04:24:06;;;;;;;3.85;1.40;;;;;;;;;;5055785;28;20036;-52
2021/05/30 04:26:32;;;;;;;1.60;1.30;;;;;;;;;;5055937;28;20083;-52
2021/05/30 04:28:58;;;;;;;3.33;1.27;;;;;;;;;;5055526;28;20024;-52
2021/05/30 04:31:25;;;;;;;2.90;1.30;;;;;;;;;;5055733;28;20070;-52
2021/05/30 04:33:51;;;;;;;2.63;1.40;;;;;;;;;;5055689;28;20114;-53
2021/05/30 04:36:20;;;;;;;1.85;1.30;;;;;;;;;;5055506;28;20025;-53
2021/05/30 04:38:46;;;;;;;4.90;1.63;;;;;;;;;;5055331;28;20044;-51
2021/05/30 04:41:12;;;;;;;1.75;1.33;;;;;;;;;;5055397;28;20057;-52
2021/05/30 04:43:38;;;;;;;33.65;20.08;;;;;;;;;;5055424;28;20107;-51
2021/05/30 04:46:04;;;;;;;17.08;10.13;;;;;;;;;;5055243;28;20035;-51
2021/05/30 04:48:32;;;;;;;10.35;4.35;;;;;;;;;;5055129;28;20021;-51
2021/05/30 04:51:05;;;;;;;8.38;4.30;;;;;;;;;;5055087;28;20158;-51
2021/05/30 04:53:32;;;;;;;7.30;2.80;;;;;;;;;;5055079;28;20025;-52
2021/05/30 04:56:00;;;;;;;5.70;2.58;;;;;;;;;;5055108;28;20036;-51
2021/05/30 04:58:27;;;;;;;5.05;2.35;;;;;;;;;;5055519;28;20405;-52
2021/05/30 05:00:53;;;;;;;4.05;2.25;;;;;;;;;;5054970;28;20028;-52
2021/05/30 05:03:21;;;;;;;3.25;2.03;;;;;;;;;;5055023;28;20390;-52
2021/05/30 05:05:47;;;;;;;2.60;1.85;;;;;;;;;;5054939;28;20047;-49
2021/05/30 05:08:13;;;;;;;3.88;1.80;;;;;;;;;;5054838;28;20021;-52
2021/05/30 05:10:39;;;;;;;2.03;1.52;;;;;;;;;;5054636;28;20025;-52
2021/05/30 05:13:06;;;;;;;4.22;1.90;;;;;;;;;;5054975;28;20108;-53
2021/05/30 05:15:32;;;;;;;4.60;1.83;;;;;;;;;;5053982;28;20051;-52
2021/05/30 05:17:58;;;;;;;5.03;1.80;;;;;;;;;;5054768;28;20039;-53
2021/05/30 05:20:24;;;;;;;3.33;1.65;;;;;;;;;;5054572;28;20090;-52
2021/05/30 05:22:50;;;;;;;4.53;1.65;;;;;;;;;;5054772;28;20071;-52
2021/05/30 05:25:16;;;;;;;5.95;2.30;;;;;;;;;;5054436;28;20025;-52
2021/05/30 05:27:42;;;;;;;1.70;1.33;;;;;;;;;;5054571;28;20025;-53
2021/05/30 05:30:09;;;;;;;4.75;1.92;;;;;;;;;;5053177;28;20029;-53
2021/05/30 05:32:35;;;;;;;3.78;2.05;;;;;;;;;;5054147;28;20027;-54
2021/05/30 05:35:01;;;;;;;4.78;1.92;;;;;;;;;;5054334;28;20032;-53
2021/05/30 05:37:27;;;;;;;3.20;1.75;;;;;;;;;;5054248;28;20090;-53
2021/05/30 05:39:53;;;;;;;3.95;1.67;;;;;;;;;;5054243;28;20021;-53
2021/05/30 05:42:19;;;;;;;4.15;1.80;;;;;;;;;;5054225;28;20036;-52
2021/05/30 05:44:45;;;;;;;5.28;1.75;;;;;;;;;;5054176;28;20025;-52
2021/05/30 05:47:11;;;;;;;3.85;1.88;;;;;;;;;;5054198;28;20028;-52
2021/05/30 05:49:37;;;;;;;2.10;1.90;;;;;;;;;;5054071;28;20025;-52
2021/05/30 05:52:04;;;;;;;5.38;1.60;;;;;;;;;;5053827;28;20075;-52
2021/05/30 05:54:30;;;;;;;1.77;1.67;;;;;;;;;;5053763;28;20033;-53
2021/05/30 05:56:56;;;;;;;3.05;1.90;;;;;;;;;;5053907;28;20470;-53
2021/05/30 05:59:22;;;;;;;3.65;1.98;;;;;;;;;;5054057;28;20027;-52
2021/05/30 06:01:48;;;;;;;3.15;2.30;;;;;;;;;;5053883;28;20028;-52
2021/05/30 06:04:14;;;;;;;6.28;2.25;;;;;;;;;;5053761;28;20066;-52
2021/05/30 06:06:40;;;;;;;10.35;3.90;;;;;;;;;;5053681;28;20052;-52
2021/05/30 06:09:06;;;;;;;63.38;36.15;;;;;;;;;;5053489;28;20488;-52
2021/05/30 06:11:32;;;;;;;30.35;19.05;;;;;;;;;;5053570;28;20036;-52
2021/05/30 06:13:58;;;;;;;25.85;16.73;;;;;;;;;;5053553;28;20025;-52
2021/05/30 06:16:24;;;;;;;18.00;8.25;;;;;;;;;;5053466;28;20065;-57
2021/05/30 06:18:50;;;;;;;12.38;4.88;;;;;;;;;;5053496;28;20013;-55
2021/05/30 06:21:16;;;;;;;33.38;17.77;;;;;;;;;;5053436;28;20378;-57
2021/05/30 06:23:42;;;;;;;53.08;27.23;;;;;;;;;;5053632;28;20083;-52
2021/05/30 06:26:10;;;;;;;16.40;8.77;;;;;;;;;;5052523;28;20029;-52
2021/05/30 06:28:37;;;;;;;11.38;6.00;;;;;;;;;;5053552;28;20029;-53
2021/05/30 06:31:03;;;;;;;13.48;7.30;;;;;;;;;;5069740;28;20070;-53
2021/05/30 06:33:29;;;;;;;14.32;6.43;;;;;;;;;;5072508;28;20055;-52
2021/05/30 06:35:55;;;;;;;9.23;5.03;;;;;;;;;;5071798;28;20476;-53
2021/05/30 06:38:21;;;;;;;8.40;5.05;;;;;;;;;;5069442;28;20029;-51
2021/05/30 06:40:47;;;;;;;10.48;3.65;;;;;;;;;;5071366;28;20070;-53
2021/05/30 06:43:13;;;;;;;10.23;3.47;;;;;;;;;;5071969;28;20021;-50
2021/05/30 06:45:39;;;;;;;5.15;3.45;;;;;;;;;;5071487;28;20032;-50
2021/05/30 06:48:06;;;;;;;5.15;3.28;;;;;;;;;;5054108;28;20487;-54
2021/05/30 06:50:32;;;;;;;6.30;3.97;;;;;;;;;;5073052;28;20481;-54
2021/05/30 06:52:59;;;;;;;5.68;3.80;;;;;;;;;;5073244;28;20032;-53
2021/05/30 06:55:27;;;;;;;6.13;2.80;;;;;;;;;;5073003;28;20051;-53
2021/05/30 06:57:53;;;;;;;10.90;2.80;;;;;;;;;;5073001;28;20496;-52
2021/05/30 07:00:20;;;;;;;9.20;4.28;;;;;;;;;;5073310;28;20396;-52
2021/05/30 07:02:49;;;;;;;17.70;6.25;;;;;;;;;;5072981;28;20048;-53
2021/05/30 07:05:16;;;;;;;9.18;3.63;;;;;;;;;;5073201;28;20024;-54
2021/05/30 07:07:42;;;;;;;2.90;2.03;;;;;;;;;;5072885;28;20028;-52
2021/05/30 07:10:12;;;;;;;7.53;2.80;;;;;;;;;;5072933;28;20029;-53
2021/05/30 07:12:38;;;;;;;5.82;2.15;;;;;;;;;;5072979;28;20021;-52
2021/05/30 07:15:04;;;;;;;2.30;2.10;;;;;;;;;;5073201;28;20017;-52
2021/05/30 07:17:30;;;;;;;4.82;2.50;;;;;;;;;;5072836;28;20447;-52
2021/05/30 07:19:57;;;;;;;3.85;2.13;;;;;;;;;;5072564;28;20085;-53
2021/05/30 07:22:24;;;;;;;4.53;2.03;;;;;;;;;;5073061;28;20029;-51
2021/05/30 07:24:50;;;;;;;3.53;2.17;;;;;;;;;;5072747;28;20024;-53
2021/05/30 07:27:16;;;;;;;2.22;1.70;;;;;;;;;;5072885;28;20029;-53
2021/05/30 07:29:42;;;;;;;4.75;2.42;;;;;;;;;;5072886;28;20096;-51
2021/05/30 07:32:08;;;;;;;3.35;2.13;;;;;;;;;;5072691;28;20029;-50
2021/05/30 07:34:34;;;;;;;9.48;2.38;;;;;;;;;;5072750;28;20028;-54
2021/05/30 07:37:00;;;;;;;37.65;3.72;;;;;;;;;;5072894;28;20032;-53
2021/05/30 07:39:26;;;;;;;3.85;2.35;;;;;;;;;;5076295;28;20082;-53
2021/05/30 07:41:52;;;;;;;4.32;2.10;;;;;;;;;;5076268;28;20093;-52
2021/05/30 07:44:20;;;;;;;7.18;2.17;;;;;;;;;;5076486;28;20028;-53
2021/05/30 07:46:46;;;;;;;6.20;2.40;;;;;;;;;;5075992;28;20035;-55
2021/05/30 07:49:12;;;;;;;4.15;2.13;;;;;;;;;;5076081;28;20067;-53
2021/05/30 07:51:38;;;;;;;18.88;10.20;;;;;;;;;;5075865;28;20044;-53
2021/05/30 07:54:04;;;;;;;15.13;9.85;;;;;;;;;;5076036;28;20061;-53
2021/05/30 07:56:30;;;;;;;9.93;3.92;;;;;;;;;;5076048;28;20087;-53
2021/05/30 07:58:57;;;;;;;13.73;6.47;;;;;;;;;;5058533;28;20048;-52
2021/05/30 08:01:23;;;;;;;13.35;6.45;;;;;;;;;;5076151;28;20479;-52
2021/05/30 08:03:49;;;;;;;11.80;4.53;;;;;;;;;;5076003;28;20498;-52
2021/05/30 08:06:15;;;;;;;32.08;20.48;;;;;;;;;;5076216;28;20417;-52
2021/05/30 08:08:41;;;;;;;12.70;3.90;;;;;;;;;;5075923;28;20035;-52
2021/05/30 08:11:07;;;;;;;11.27;5.68;;;;;;;;;;5075082;28;20042;-52
2021/05/30 08:13:35;;;;;;;25.55;15.75;;;;;;;;;;5075872;28;20020;-52
2021/05/30 08:16:04;;;;;;;12.73;7.40;;;;;;;;;;5075815;28;20043;-51
2021/05/30 08:18:30;;;;;;;7.22;2.95;;;;;;;;;;5075691;28;20027;-52
2021/05/30 08:20:56;;;;;;;24.98;9.25;;;;;;;;;;5075058;28;20103;-52
2021/05/30 08:23:22;;;;;;;37.33;18.85;;;;;;;;;;5075583;28;20086;-52
2021/05/30 08:25:48;;;;;;;78.03;52.17;;;;;;;;;;5075361;28;20424;-52
2021/05/30 08:28:14;;;;;;;109.97;98.00;;;;;;;;;;5074977;28;20028;-53
2021/05/30 08:30:41;;;;;;;9.55;4.57;;;;;;;;;;5074914;28;20074;-53
2021/05/30 08:33:07;;;;;;;17.13;11.90;;;;;;;;;;5074833;28;20029;-52
2021/05/30 08:35:33;;;;;;;17.10;9.65;;;;;;;;;;5075243;28;20048;-53
2021/05/30 08:37:59;;;;;;;14.65;9.52;;;;;;;;;;5075088;28;20047;-52
2021/05/30 08:40:25;;;;;;;27.70;16.48;;;;;;;;;;5074549;28;20489;-53
2021/05/30 08:42:52;;;;;;;68.00;42.53;;;;;;;;;;5074806;28;20470;-52
2021/05/30 08:45:18;;;;;;;16.42;11.15;;;;;;;;;;5075179;28;20077;-50
2021/05/30 08:47:45;;;;;;;14.60;9.23;;;;;;;;;;5074522;28;20029;-53
2021/05/30 08:50:11;;;;;;;28.80;15.32;;;;;;;;;;5074098;28;20025;-48
2021/05/30 08:52:37;;;;;;;51.50;27.27;;;;;;;;;;5075077;28;20060;-53
2021/05/30 08:55:04;;;;;;;18.95;11.38;;;;;;;;;;5074713;28;20020;-49
2021/05/30 08:57:31;;;;;;;6.30;4.13;;;;;;;;;;5074835;28;20032;-50
2021/05/30 08:59:58;;;;;;;15.00;7.55;;;;;;;;;;5074805;28;20029;-49
2021/05/30 09:02:24;;;;;;;6.05;4.47;;;;;;;;;;5074671;28;20028;-50
2021/05/30 09:04:54;;;;;;;8.23;6.00;;;;;;;;;;5074865;28;20024;-50
2021/05/30 09:07:36;;;;;;;19.08;11.02;;;;;;;;;;5074696;28;20056;-52
2021/05/30 09:10:07;;;;;;;23.98;13.23;;;;;;;;;;5074803;28;20031;-50
2021/05/30 09:12:39;;;;;;;22.95;11.00;;;;;;;;;;5074509;28;20028;-50
2021/05/30 09:15:14;;;;;;;19.48;8.60;;;;;;;;;;5074451;28;20016;-50
2021/05/30 09:17:41;;;;;;;16.02;4.43;;;;;;;;;;5074066;28;20038;-53
2021/05/30 09:20:08;;;;;;;13.27;6.45;;;;;;;;;;5074140;28;20023;-50
2021/05/30 09:22:34;;;;;;;29.77;15.48;;;;;;;;;;5074296;28;20468;-52
2021/05/30 09:25:03;;;;;;;13.63;8.70;;;;;;;;;;5074567;28;20388;-54
2021/05/30 09:27:29;;;;;;;24.75;8.60;;;;;;;;;;5074314;28;20028;-52
2021/05/30 09:30:17;;;;;;;6.93;2.75;;;;;;;;;;5074331;28;20025;-52
2021/05/30 09:32:53;;;;;;;88.63;55.15;;;;;;;;;;5074306;28;20106;-53
2021/05/30 09:35:19;;;;;;;111.72;74.93;;;;;;;;;;5074006;28;20012;-53
2021/05/30 09:37:45;;;;;;;140.02;80.05;;;;;;;;;;5074090;28;20077;-54
2021/05/30 09:40:12;;;;;;;51.15;32.85;;;;;;;;;;5074092;28;20025;-53
2021/05/30 09:42:38;;;;;;;19.40;12.70;;;;;;;;;;5072863;28;20388;-51
2021/05/30 09:45:09;;;;;;;9.07;3.38;;;;;;;;;;5072845;28;20024;-51
2021/05/30 09:47:35;;;;;;;;;;;;;;;;;;5072886;28;20357;-50
2021/05/30 09:50:04;;;;;;;24.15;15.23;;;;;;;;;;5069774;28;19912;-51
2021/05/30 09:52:40;;;;;;;7.22;3.88;;;;;;;;;;5072754;28;20056;-49
2021/05/30 09:55:21;;;;;;;13.20;7.35;;;;;;;;;;5073849;28;20027;-50
2021/05/30 09:58:08;;;;;;;45.80;24.63;;;;;;;;;;5073615;28;20045;-50
2021/05/30 10:00:34;;;;;;;15.30;9.02;;;;;;;;;;5073793;28;20024;-50
2021/05/30 10:03:00;;;;;;;17.17;9.10;;;;;;;;;;5073638;28;20028;-50
2021/05/30 10:05:27;;;;;;;9.52;4.75;;;;;;;;;;5073519;28;20114;-50
2021/05/30 10:07:54;;;;;;;11.85;4.93;;;;;;;;;;5073467;28;20025;-50
2021/05/30 10:10:21;;;;;;;8.15;4.25;;;;;;;;;;5073462;28;20062;-50
2021/05/30 10:12:50;;;;;;;5.07;3.20;;;;;;;;;;5073552;28;20020;-49
2021/05/30 10:15:16;;;;;;;16.92;6.57;;;;;;;;;;5073209;28;20372;-49
2021/05/30 10:17:43;;;;;;;15.32;5.82;;;;;;;;;;5073111;28;20124;-50
2021/05/30 10:20:10;;;;;;;18.30;6.63;;;;;;;;;;5070608;28;20025;-49
2021/05/30 10:22:37;;;;;;;10.05;4.28;;;;;;;;;;5072933;28;20396;-50
2021/05/30 10:25:03;;;;;;;16.42;6.75;;;;;;;;;;5072994;28;20045;-50
2021/05/30 10:27:30;;;;;;;29.02;14.30;;;;;;;;;;5072816;28;20028;-50
2021/05/30 10:30:13;;;;;;;95.45;41.35;;;;;;;;;;5072824;28;20013;-49
2021/05/30 10:32:43;;;;;;;74.53;43.38;;;;;;;;;;5072902;28;20475;-51
2021/05/30 10:35:12;;;;;;;37.13;22.30;;;;;;;;;;5070579;28;20025;-50
2021/05/30 10:37:47;;;;;;;30.55;18.63;;;;;;;;;;5073230;28;20129;-51
2021/05/30 10:40:23;;;;;;;20.90;12.63;;;;;;;;;;5073236;28;20029;-51
2021/05/30 10:43:12;;;;;;;12.75;5.90;;;;;;;;;;5073422;28;20024;-49
2021/05/30 10:45:46;;;;;;;33.25;13.82;;;;;;;;;;5073504;28;20020;-52
2021/05/30 10:48:13;;;;;;;9.10;4.57;;;;;;;;;;5073162;28;20041;-50
2021/05/30 10:53:47;;;;;;;13.38;6.05;;;;;;;;;;5073244;28;20041;-51
2021/05/30 10:56:13;;;;;;;8.07;2.63;;;;;;;;;;5073030;28;20099;-51
2021/05/30 10:58:39;;;;;;;4.05;2.17;;;;;;;;;;5073178;28;20506;-51
2021/05/30 11:01:06;;;;;;;9.88;2.63;;;;;;;;;;5072859;28;20028;-51
2021/05/30 11:03:32;;;;;;;4.40;1.90;;;;;;;;;;5073172;28;20021;-52
2021/05/30 11:05:58;;;;;;;22.02;2.13;;;;;;;;;;5073288;28;20027;-52
2021/05/30 11:08:33;;;;;;;8.48;2.05;;;;;;;;;;5073100;28;20021;-50
2021/05/30 11:11:11;;;;;;;27.30;15.98;;;;;;;;;;5073012;28;20444;-52
2021/05/30 11:13:52;;;;;;;30.50;19.05;;;;;;;;;;5075577;28;20021;-50
2021/05/30 11:16:26;;;;;;;37.30;25.02;;;;;;;;;;5060044;28;20063;-49
2021/05/30 11:19:04;;;;;;;9.00;5.40;;;;;;;;;;5048486;28;20087;-50
2021/05/30 11:21:44;;;;;;;9.63;6.25;;;;;;;;;;5047191;28;20634;-47
2021/05/30 11:24:12;;;;;;;77.55;53.47;;;;;;;;;;5046959;28;20178;-53
2021/05/30 11:26:38;;;;;;;52.92;32.00;;;;;;;;;;5046306;28;20036;-49
2021/05/30 11:29:05;;;;;;;68.45;43.42;;;;;;;;;;5046166;28;20807;-49
2021/05/30 11:31:32;;;;;;;26.55;16.77;;;;;;;;;;5045814;28;20060;-49
2021/05/30 11:33:59;;;;;;;12.02;8.40;;;;;;;;;;5046007;28;20029;-49
2021/05/30 11:36:30;;;;;;;18.33;9.27;;;;;;;;;;5045489;28;20845;-48
2021/05/30 11:38:58;;;;;;;23.63;15.00;;;;;;;;;;5046706;28;20106;-49
2021/05/30 11:41:26;;;;;;;36.60;19.83;;;;;;;;;;5027365;28;20067;-51
2021/05/30 11:44:03;;;;;;;38.08;24.80;;;;;;;;;;5045753;28;20028;-54
2021/05/30 11:46:30;;;;;;;48.30;30.60;;;;;;;;;;5045570;28;20024;-51
2021/05/30 11:49:05;;;;;;;56.88;33.60;;;;;;;;;;5045669;28;20048;-51
2021/05/30 11:51:50;;;;;;;69.22;46.03;;;;;;;;;;5044446;28;20042;-51
2021/05/30 11:54:17;;;;;;;28.63;17.60;;;;;;;;;;5046421;28;20028;-49
2021/05/30 11:56:45;;;;;;;34.40;24.20;;;;;;;;;;5045477;28;20472;-49
2021/05/30 11:59:11;;;;;;;28.38;15.43;;;;;;;;;;5045351;28;20021;-48
2021/05/30 12:01:42;;;;;;;18.95;10.90;;;;;;;;;;5045355;28;20025;-49
2021/05/30 12:04:18;;;;;;;15.57;8.57;;;;;;;;;;5045254;28;20025;-51
2021/05/30 12:06:44;;;;;;;26.10;16.20;;;;;;;;;;5043668;28;20751;-48
2021/05/30 12:09:10;;;;;;;6.30;4.40;;;;;;;;;;5045265;28;20504;-48
2021/05/30 12:11:38;;;;;;;9.60;7.20;;;;;;;;;;5045150;28;20017;-50
2021/05/30 12:14:04;;;;;;;11.68;6.07;;;;;;;;;;5046456;28;20515;-50
2021/05/30 12:16:30;;;;;;;7.72;4.93;;;;;;;;;;5045932;28;20037;-49
2021/05/30 12:18:57;;;;;;;12.05;7.43;;;;;;;;;;5045303;28;20070;-49
2021/05/30 12:21:24;;;;;;;6.13;3.35;;;;;;;;;;5043431;28;20037;-49
2021/05/30 12:23:50;;;;;;;9.85;4.80;;;;;;;;;;5043808;28;20075;-50
2021/05/30 12:26:19;;;;;;;10.98;7.20;;;;;;;;;;5044883;28;20029;-48
2021/05/30 12:28:45;;;;;;;5.20;3.30;;;;;;;;;;5045972;28;21586;-50
2021/05/30 12:31:12;;;;;;;13.50;4.35;;;;;;;;;;5045065;28;20025;-48
2021/05/30 12:33:57;;;;;;;11.75;5.38;;;;;;;;;;5044739;28;20032;-48
2021/05/30 12:36:32;;;;;;;9.75;3.67;;;;;;;;;;5046297;28;20131;-49
2021/05/30 12:39:01;;;;;;;5.18;3.53;;;;;;;;;;5044918;28;20139;-50
2021/05/30 12:41:35;;;;;;;5.55;3.30;;;;;;;;;;5045824;28;20036;-49
2021/05/30 12:44:09;;;;;;;16.83;2.88;;;;;;;;;;5044158;28;20021;-48
2021/05/30 12:46:37;;;;;;;3.65;2.80;;;;;;;;;;5046324;28;20028;-50
2021/05/30 12:49:09;;;;;;;4.55;2.20;;;;;;;;;;5045646;28;20116;-48
2021/05/30 12:51:36;;;;;;;6.78;2.40;;;;;;;;;;5044444;28;20080;-49
2021/05/30 12:54:16;;;;;;;3.75;2.10;;;;;;;;;;5044367;28;20483;-50
2021/05/30 12:56:46;;;;;;;6.82;2.35;;;;;;;;;;5044102;28;20213;-48
2021/05/30 12:59:16;;;;;;;5.82;2.50;;;;;;;;;;5045195;28;20044;-50
2021/05/30 13:01:45;;;;;;;5.20;2.20;;;;;;;;;;5044340;28;20052;-49
2021/05/30 13:04:22;;;;;;;6.55;2.80;;;;;;;;;;5044249;28;20368;-51
2021/05/30 13:06:54;;;;;;;2.60;2.00;;;;;;;;;;5044073;28;20024;-48
2021/05/30 13:09:21;;;;;;;3.38;2.00;;;;;;;;;;5043982;28;20036;-48
2021/05/30 13:11:47;;;;;;;3.47;1.48;;;;;;;;;;5049115;28;20135;-49
2021/05/30 13:14:33;;;;;;;3.88;2.45;;;;;;;;;;5048372;28;20078;-49
2021/05/30 13:17:18;;;;;;;7.70;2.10;;;;;;;;;;5048779;28;20068;-50
2021/05/30 13:20:19;;;;;;;4.47;2.00;;;;;;;;;;5048999;28;20016;-49
2021/05/30 13:23:01;;;;;;;5.07;1.85;;;;;;;;;;4989509;28;20089;-50
2021/05/30 13:25:28;;;;;;;8.57;2.22;;;;;;;;;;4988767;28;20192;-47
2021/05/30 13:28:10;;;;;;;13.20;1.98;;;;;;;;;;4989382;28;20018;-48
2021/05/30 13:30:38;;;;;;;8.63;1.95;;;;;;;;;;4990563;28;20038;-51
2021/05/30 13:33:04;;;;;;;4.90;1.75;;;;;;;;;;4989297;28;20099;-48
2021/05/30 13:35:31;;;;;;;38.85;23.90;;;;;;;;;;4988858;28;20100;-48
2021/05/30 13:37:57;;;;;;;34.70;19.30;;;;;;;;;;4990167;28;20073;-49
2021/05/30 13:40:23;;;;;;;43.65;27.35;;;;;;;;;;4990130;28;20029;-49
2021/05/30 13:42:49;;;;;;;50.15;26.40;;;;;;;;;;4990115;28;20072;-50
2021/05/30 13:45:15;;;;;;;13.35;9.07;;;;;;;;;;4990380;28;20038;-50
2021/05/30 13:47:41;;;;;;;77.70;40.22;;;;;;;;;;4989431;28;20185;-50
2021/05/30 13:50:07;;;;;;;73.07;40.88;;;;;;;;;;4989507;28;20088;-48
2021/05/30 13:52:33;;;;;;;49.72;27.65;;;;;;;;;;4989683;28;20107;-49
2021/05/30 13:55:00;;;;;;;115.72;59.50;;;;;;;;;;4990038;28;20460;-50
2021/05/30 13:57:26;;;;;;;11.25;6.75;;;;;;;;;;5030720;28;20059;-52
2021/05/30 13:59:52;;;;;;;15.07;6.18;;;;;;;;;;5044283;28;20341;-49
2021/05/30 14:02:20;;;;;;;5.25;3.42;;;;;;;;;;5043069;28;20079;-48
2021/05/30 14:04:46;;;;;;;9.52;2.83;;;;;;;;;;5042969;28;20032;-50
2021/05/30 14:07:12;;;;;;;68.30;43.50;;;;;;;;;;5042757;28;20279;-49
2021/05/30 14:09:38;;;;;;;90.97;55.28;;;;;;;;;;5042959;28;20516;-49
2021/05/30 14:12:04;;;;;;;18.63;11.27;;;;;;;;;;5041651;28;20409;-51
2021/05/30 14:14:30;;;;;;;23.15;9.88;;;;;;;;;;5042793;28;20025;-54
2021/05/30 14:16:56;;;;;;;17.83;10.52;;;;;;;;;;5042536;28;20040;-52
2021/05/30 14:19:22;;;;;;;16.50;9.57;;;;;;;;;;5044331;28;20024;-51
2021/05/30 14:21:48;;;;;;;11.77;3.92;;;;;;;;;;5043696;28;20611;-50
2021/05/30 14:24:14;;;;;;;62.00;22.13;;;;;;;;;;5042596;28;20029;-49
2021/05/30 14:26:40;;;;;;;31.13;11.02;;;;;;;;;;5042783;28;20036;-50
2021/05/30 14:29:10;;;;;;;41.30;13.95;;;;;;;;;;5042618;28;20794;-50
2021/05/30 14:31:36;;;;;;;18.52;8.40;;;;;;;;;;5042595;28;20488;-49
2021/05/30 14:34:02;;;;;;;22.25;9.52;;;;;;;;;;5042297;28;20021;-49
2021/05/30 14:36:28;;;;;;;14.18;5.30;;;;;;;;;;5042503;28;20035;-49
2021/05/30 14:38:56;;;;;;;6.43;3.13;;;;;;;;;;5043438;28;20037;-50
2021/05/30 14:41:22;;;;;;;11.88;5.45;;;;;;;;;;5043820;28;20070;-50